sensor_id;sensor_type;location;lat;lon;timestamp;pressure;altitude;pressure_sealevel;temperature;humidity
72423;BME280;71399;54.146;38.734;2024-03-06T00:02:20;99951.06;;;-3.56;100.00
72423;BME280;71399;54.146;38.734;2024-03-06T00:04:46;99953.66;;;-3.56;100.00
72423;BME280;71399;54.146;38.734;2024-03-06T00:07:12;99953.78;;;-3.58;100.00
72423;BME280;71399;54.146;38.734;2024-03-06T00:09:39;99955.66;;;-3.60;100.00
72423;BME280;71399;54.146;38.734;2024-03-06T00:12:05;99940.69;;;-3.66;100.00
72423;BME280;71399;54.146;38.734;2024-03-06T00:14:32;99958.13;;;-3.58;100.00
72423;BME280;71399;54.146;38.734;2024-03-06T00:16:58;99964.06;;;-3.58;100.00
72423;BME280;71399;54.146;38.734;2024-03-06T00:19:25;99961.91;;;-3.62;100.00
72423;BME280;71399;54.146;38.734;2024-03-06T00:21:51;99955.72;;;-3.71;100.00
72423;BME280;71399;54.146;38.734;2024-03-06T00:24:18;99968.22;;;-3.66;100.00
72423;BME280;71399;54.146;38.734;2024-03-06T00:26:45;99972.69;;;-3.68;100.00
72423;BME280;71399;54.146;38.734;2024-03-06T00:29:11;99964.41;;;-3.72;100.00
72423;BME280;71399;54.146;38.734;2024-03-06T00:31:42;99969.13;;;-3.77;100.00
72423;BME280;71399;54.146;38.734;2024-03-06T00:34:10;99960.44;;;-3.76;100.00
72423;BME280;71399;54.146;38.734;2024-03-06T00:36:37;99976.31;;;-3.71;100.00
72423;BME280;71399;54.146;38.734;2024-03-06T00:39:04;99975.63;;;-3.73;100.00
72423;BME280;71399;54.146;38.734;2024-03-06T00:41:31;99979.28;;;-3.76;100.00
72423;BME280;71399;54.146;38.734;2024-03-06T00:43:57;99975.19;;;-3.78;100.00
72423;BME280;71399;54.146;38.734;2024-03-06T00:46:24;99976.13;;;-3.79;100.00
72423;BME280;71399;54.146;38.734;2024-03-06T00:48:50;99969.16;;;-3.88;100.00
72423;BME280;71399;54.146;38.734;2024-03-06T00:51:16;99977.81;;;-3.89;100.00
72423;BME280;71399;54.146;38.734;2024-03-06T00:53:44;99976.19;;;-3.91;100.00
72423;BME280;71399;54.146;38.734;2024-03-06T00:56:11;99971.53;;;-3.97;100.00
72423;BME280;71399;54.146;38.734;2024-03-06T00:58:37;99981.59;;;-3.94;100.00
72423;BME280;71399;54.146;38.734;2024-03-06T01:01:03;99984.97;;;-3.93;100.00
72423;BME280;71399;54.146;38.734;2024-03-06T01:03:30;99980.19;;;-3.98;100.00
72423;BME280;71399;54.146;38.734;2024-03-06T01:05:56;99982.63;;;-3.96;100.00
72423;BME280;71399;54.146;38.734;2024-03-06T01:08:23;99976.00;;;-3.99;100.00
72423;BME280;71399;54.146;38.734;2024-03-06T01:10:52;99981.16;;;-3.99;100.00
72423;BME280;71399;54.146;38.734;2024-03-06T01:13:21;99972.97;;;-4.04;100.00
72423;BME280;71399;54.146;38.734;2024-03-06T01:15:48;99968.31;;;-4.10;100.00
72423;BME280;71399;54.146;38.734;2024-03-06T01:18:14;99979.06;;;-4.05;100.00
72423;BME280;71399;54.146;38.734;2024-03-06T01:20:41;99983.63;;;-4.08;100.00
72423;BME280;71399;54.146;38.734;2024-03-06T01:23:07;99979.41;;;-4.10;100.00
72423;BME280;71399;54.146;38.734;2024-03-06T01:25:33;99984.56;;;-4.10;100.00
72423;BME280;71399;54.146;38.734;2024-03-06T01:27:59;99973.00;;;-4.15;100.00
72423;BME280;71399;54.146;38.734;2024-03-06T01:30:26;99978.16;;;-4.15;100.00
72423;BME280;71399;54.146;38.734;2024-03-06T01:32:52;99986.13;;;-4.18;100.00
72423;BME280;71399;54.146;38.734;2024-03-06T01:35:18;99982.97;;;-4.22;100.00
72423;BME280;71399;54.146;38.734;2024-03-06T01:37:45;99976.09;;;-4.33;100.00
72423;BME280;71399;54.146;38.734;2024-03-06T01:40:11;99981.94;;;-4.31;100.00
72423;BME280;71399;54.146;38.734;2024-03-06T01:42:38;99988.84;;;-4.31;100.00
72423;BME280;71399;54.146;38.734;2024-03-06T01:45:05;99990.59;;;-4.32;100.00
72423;BME280;71399;54.146;38.734;2024-03-06T01:47:32;99993.53;;;-4.36;100.00
72423;BME280;71399;54.146;38.734;2024-03-06T01:49:59;99982.09;;;-4.43;100.00
72423;BME280;71399;54.146;38.734;2024-03-06T01:52:26;99989.91;;;-4.45;100.00
72423;BME280;71399;54.146;38.734;2024-03-06T01:54:53;99982.09;;;-4.55;100.00
72423;BME280;71399;54.146;38.734;2024-03-06T01:57:20;100000.69;;;-4.51;100.00
72423;BME280;71399;54.146;38.734;2024-03-06T01:59:47;99996.50;;;-4.52;100.00
72423;BME280;71399;54.146;38.734;2024-03-06T02:02:14;99994.03;;;-4.54;100.00
72423;BME280;71399;54.146;38.734;2024-03-06T02:04:41;99994.25;;;-4.57;100.00
72423;BME280;71399;54.146;38.734;2024-03-06T02:07:08;99982.94;;;-4.66;100.00
72423;BME280;71399;54.146;38.734;2024-03-06T02:09:38;99985.88;;;-4.70;100.00
72423;BME280;71399;54.146;38.734;2024-03-06T02:12:06;99993.47;;;-4.69;100.00
72423;BME280;71399;54.146;38.734;2024-03-06T02:14:37;99993.81;;;-4.73;100.00
72423;BME280;71399;54.146;38.734;2024-03-06T02:17:05;99998.59;;;-4.80;100.00
72423;BME280;71399;54.146;38.734;2024-03-06T02:19:42;100005.38;;;-4.90;100.00
72423;BME280;71399;54.146;38.734;2024-03-06T02:22:09;99991.59;;;-5.00;100.00
72423;BME280;71399;54.146;38.734;2024-03-06T02:24:37;99991.34;;;-5.09;100.00
72423;BME280;71399;54.146;38.734;2024-03-06T02:27:04;100011.81;;;-5.07;100.00
72423;BME280;71399;54.146;38.734;2024-03-06T02:29:33;100008.19;;;-5.16;100.00
72423;BME280;71399;54.146;38.734;2024-03-06T02:32:00;100010.41;;;-5.23;100.00
72423;BME280;71399;54.146;38.734;2024-03-06T02:34:29;100008.38;;;-5.30;100.00
72423;BME280;71399;54.146;38.734;2024-03-06T02:36:58;100010.47;;;-5.35;100.00
72423;BME280;71399;54.146;38.734;2024-03-06T02:39:24;100006.72;;;-5.43;100.00
72423;BME280;71399;54.146;38.734;2024-03-06T02:41:50;100007.97;;;-5.48;100.00
72423;BME280;71399;54.146;38.734;2024-03-06T02:44:16;100018.38;;;-5.50;100.00
72423;BME280;71399;54.146;38.734;2024-03-06T02:46:51;100012.59;;;-5.65;100.00
72423;BME280;71399;54.146;38.734;2024-03-06T02:49:17;100029.78;;;-5.65;100.00
72423;BME280;71399;54.146;38.734;2024-03-06T02:51:44;100022.16;;;-5.67;100.00
72423;BME280;71399;54.146;38.734;2024-03-06T02:54:11;100028.16;;;-5.66;100.00
72423;BME280;71399;54.146;38.734;2024-03-06T02:56:37;100029.78;;;-5.65;100.00
72423;BME280;71399;54.146;38.734;2024-03-06T02:59:03;100026.97;;;-5.62;100.00
72423;BME280;71399;54.146;38.734;2024-03-06T03:01:30;100030.25;;;-5.60;100.00
72423;BME280;71399;54.146;38.734;2024-03-06T03:03:56;100026.28;;;-5.64;100.00
72423;BME280;71399;54.146;38.734;2024-03-06T03:06:23;100019.72;;;-5.68;100.00
72423;BME280;71399;54.146;38.734;2024-03-06T03:08:50;100037.16;;;-5.61;100.00
72423;BME280;71399;54.146;38.734;2024-03-06T03:11:16;100036.94;;;-5.57;100.00
72423;BME280;71399;54.146;38.734;2024-03-06T03:13:42;100038.66;;;-5.58;100.00
72423;BME280;71399;54.146;38.734;2024-03-06T03:16:16;100042.97;;;-5.59;100.00
72423;BME280;71399;54.146;38.734;2024-03-06T03:18:44;100036.81;;;-5.56;100.00
72423;BME280;71399;54.146;38.734;2024-03-06T03:21:10;100045.34;;;-5.55;100.00
72423;BME280;71399;54.146;38.734;2024-03-06T03:23:38;100048.81;;;-5.56;100.00
72423;BME280;71399;54.146;38.734;2024-03-06T03:26:08;100048.72;;;-5.55;100.00
72423;BME280;71399;54.146;38.734;2024-03-06T03:28:38;100048.13;;;-5.59;100.00
72423;BME280;71399;54.146;38.734;2024-03-06T03:31:09;100051.63;;;-5.60;100.00
72423;BME280;71399;54.146;38.734;2024-03-06T03:33:40;100050.69;;;-5.59;100.00
72423;BME280;71399;54.146;38.734;2024-03-06T03:36:08;100060.25;;;-5.61;100.00
72423;BME280;71399;54.146;38.734;2024-03-06T03:38:38;100044.47;;;-5.67;100.00
72423;BME280;71399;54.146;38.734;2024-03-06T03:41:11;100040.47;;;-5.71;100.00
72423;BME280;71399;54.146;38.734;2024-03-06T03:43:42;100043.19;;;-5.73;100.00
72423;BME280;71399;54.146;38.734;2024-03-06T03:46:08;100051.00;;;-5.74;100.00
72423;BME280;71399;54.146;38.734;2024-03-06T03:48:35;100052.13;;;-5.79;100.00
72423;BME280;71399;54.146;38.734;2024-03-06T03:51:04;100049.06;;;-5.84;100.00
72423;BME280;71399;54.146;38.734;2024-03-06T03:53:30;100050.50;;;-5.80;100.00
72423;BME280;71399;54.146;38.734;2024-03-06T03:55:57;100055.41;;;-5.77;100.00
72423;BME280;71399;54.146;38.734;2024-03-06T03:58:23;100044.53;;;-5.80;100.00
72423;BME280;71399;54.146;38.734;2024-03-06T04:00:49;100059.41;;;-5.72;100.00
72423;BME280;71399;54.146;38.734;2024-03-06T04:03:19;100058.44;;;-5.71;100.00
72423;BME280;71399;54.146;38.734;2024-03-06T04:05:47;100057.63;;;-5.72;100.00
72423;BME280;71399;54.146;38.734;2024-03-06T04:08:14;100056.22;;;-5.76;100.00
72423;BME280;71399;54.146;38.734;2024-03-06T04:10:44;100069.94;;;-5.64;100.00
72423;BME280;71399;54.146;38.734;2024-03-06T04:13:15;100067.25;;;-5.63;100.00
72423;BME280;71399;54.146;38.734;2024-03-06T04:15:42;100073.00;;;-5.59;100.00
72423;BME280;71399;54.146;38.734;2024-03-06T04:18:08;100072.88;;;-5.57;100.00
72423;BME280;71399;54.146;38.734;2024-03-06T04:20:34;100072.56;;;-5.53;100.00
72423;BME280;71399;54.146;38.734;2024-03-06T04:23:01;100060.03;;;-5.57;100.00
72423;BME280;71399;54.146;38.734;2024-03-06T04:25:27;100077.44;;;-5.50;100.00
72423;BME280;71399;54.146;38.734;2024-03-06T04:27:54;100084.25;;;-5.49;100.00
72423;BME280;71399;54.146;38.734;2024-03-06T04:30:20;100070.91;;;-5.54;100.00
72423;BME280;71399;54.146;38.734;2024-03-06T04:32:47;100083.91;;;-5.44;100.00
72423;BME280;71399;54.146;38.734;2024-03-06T04:35:15;100080.19;;;-5.40;100.00
72423;BME280;71399;54.146;38.734;2024-03-06T04:37:41;100083.13;;;-5.33;100.00
72423;BME280;71399;54.146;38.734;2024-03-06T04:40:08;100083.81;;;-5.31;100.00
72423;BME280;71399;54.146;38.734;2024-03-06T04:42:35;100080.44;;;-5.32;100.00
72423;BME280;71399;54.146;38.734;2024-03-06T04:45:12;100092.53;;;-5.21;100.00
72423;BME280;71399;54.146;38.734;2024-03-06T04:47:41;100085.50;;;-5.19;100.00
72423;BME280;71399;54.146;38.734;2024-03-06T04:50:11;100088.88;;;-5.18;100.00
72423;BME280;71399;54.146;38.734;2024-03-06T04:52:38;100079.78;;;-5.23;100.00
72423;BME280;71399;54.146;38.734;2024-03-06T04:55:06;100094.28;;;-5.10;100.00
72423;BME280;71399;54.146;38.734;2024-03-06T04:57:34;100086.03;;;-5.03;100.00
72423;BME280;71399;54.146;38.734;2024-03-06T05:00:00;100077.03;;;-4.97;100.00
72423;BME280;71399;54.146;38.734;2024-03-06T05:02:32;100075.50;;;-4.88;100.00
72423;BME280;71399;54.146;38.734;2024-03-06T05:05:03;100092.00;;;-4.79;100.00
72423;BME280;71399;54.146;38.734;2024-03-06T05:07:32;100097.50;;;-4.73;100.00
72423;BME280;71399;54.146;38.734;2024-03-06T05:09:58;100104.06;;;-4.69;100.00
72423;BME280;71399;54.146;38.734;2024-03-06T05:12:25;100097.75;;;-4.65;100.00
72423;BME280;71399;54.146;38.734;2024-03-06T05:14:52;100090.03;;;-4.65;100.00
72423;BME280;71399;54.146;38.734;2024-03-06T05:17:19;100098.47;;;-4.62;100.00
72423;BME280;71399;54.146;38.734;2024-03-06T05:19:46;100089.56;;;-4.58;100.00
72423;BME280;71399;54.146;38.734;2024-03-06T05:22:14;100099.41;;;-4.41;100.00
72423;BME280;71399;54.146;38.734;2024-03-06T05:24:40;100084.44;;;-4.36;100.00
72423;BME280;71399;54.146;38.734;2024-03-06T05:27:07;100096.81;;;-4.18;100.00
72423;BME280;71399;54.146;38.734;2024-03-06T05:29:34;100096.22;;;-4.11;100.00
72423;BME280;71399;54.146;38.734;2024-03-06T05:32:02;100094.78;;;-4.03;100.00
72423;BME280;71399;54.146;38.734;2024-03-06T05:34:29;100109.63;;;-3.84;100.00
72423;BME280;71399;54.146;38.734;2024-03-06T05:36:56;100099.91;;;-3.81;100.00
72423;BME280;71399;54.146;38.734;2024-03-06T05:39:22;100107.34;;;-3.66;100.00
72423;BME280;71399;54.146;38.734;2024-03-06T05:41:48;100107.00;;;-3.62;100.00
72423;BME280;71399;54.146;38.734;2024-03-06T05:44:14;100118.06;;;-3.50;100.00
72423;BME280;71399;54.146;38.734;2024-03-06T05:46:40;100127.06;;;-3.44;100.00
72423;BME280;71399;54.146;38.734;2024-03-06T05:49:07;100127.19;;;-3.46;100.00
72423;BME280;71399;54.146;38.734;2024-03-06T05:51:33;100124.25;;;-3.41;100.00
72423;BME280;71399;54.146;38.734;2024-03-06T05:53:59;100130.56;;;-3.34;100.00
72423;BME280;71399;54.146;38.734;2024-03-06T05:56:25;100129.03;;;-3.37;100.00
72423;BME280;71399;54.146;38.734;2024-03-06T05:58:52;100128.72;;;-3.43;100.00
72423;BME280;71399;54.146;38.734;2024-03-06T06:01:19;100130.34;;;-3.42;100.00
72423;BME280;71399;54.146;38.734;2024-03-06T06:03:46;100137.34;;;-3.33;100.00
72423;BME280;71399;54.146;38.734;2024-03-06T06:06:17;100133.47;;;-3.27;100.00
72423;BME280;71399;54.146;38.734;2024-03-06T06:08:45;100131.69;;;-3.27;100.00
72423;BME280;71399;54.146;38.734;2024-03-06T06:11:12;100150.16;;;-3.10;100.00
72423;BME280;71399;54.146;38.734;2024-03-06T06:13:38;100146.59;;;-3.09;100.00
72423;BME280;71399;54.146;38.734;2024-03-06T06:16:07;100149.59;;;-2.93;100.00
72423;BME280;71399;54.146;38.734;2024-03-06T06:18:34;100159.97;;;-2.83;100.00
72423;BME280;71399;54.146;38.734;2024-03-06T06:21:00;100142.59;;;-2.81;100.00
72423;BME280;71399;54.146;38.734;2024-03-06T06:23:27;100156.63;;;-2.53;100.00
72423;BME280;71399;54.146;38.734;2024-03-06T06:25:53;100157.22;;;-2.39;100.00
72423;BME280;71399;54.146;38.734;2024-03-06T06:28:19;100157.97;;;-2.28;100.00
72423;BME280;71399;54.146;38.734;2024-03-06T06:30:46;100151.34;;;-2.20;100.00
72423;BME280;71399;54.146;38.734;2024-03-06T06:33:12;100161.19;;;-2.05;100.00
72423;BME280;71399;54.146;38.734;2024-03-06T06:35:39;100167.31;;;-1.96;100.00
72423;BME280;71399;54.146;38.734;2024-03-06T06:38:05;100153.88;;;-1.90;100.00
72423;BME280;71399;54.146;38.734;2024-03-06T06:40:31;100171.31;;;-1.72;100.00
72423;BME280;71399;54.146;38.734;2024-03-06T06:42:57;100167.97;;;-1.63;100.00
72423;BME280;71399;54.146;38.734;2024-03-06T06:45:25;100174.47;;;-1.59;100.00
72423;BME280;71399;54.146;38.734;2024-03-06T06:47:51;100167.56;;;-1.58;100.00
72423;BME280;71399;54.146;38.734;2024-03-06T06:50:17;100184.59;;;-1.46;100.00
72423;BME280;71399;54.146;38.734;2024-03-06T06:52:44;100178.75;;;-1.48;100.00
72423;BME280;71399;54.146;38.734;2024-03-06T06:55:10;100187.16;;;-1.46;100.00
72423;BME280;71399;54.146;38.734;2024-03-06T06:57:37;100180.78;;;-1.32;100.00
72423;BME280;71399;54.146;38.734;2024-03-06T07:00:05;100175.88;;;-1.25;100.00
72423;BME280;71399;54.146;38.734;2024-03-06T07:02:37;100175.88;;;-1.25;100.00
72423;BME280;71399;54.146;38.734;2024-03-06T07:05:07;100179.44;;;-1.26;100.00
72423;BME280;71399;54.146;38.734;2024-03-06T07:07:35;100188.16;;;-1.18;100.00
72423;BME280;71399;54.146;38.734;2024-03-06T07:10:02;100184.06;;;-1.10;100.00
72423;BME280;71399;54.146;38.734;2024-03-06T07:12:29;100189.66;;;-0.96;100.00
72423;BME280;71399;54.146;38.734;2024-03-06T07:14:57;100177.94;;;-1.00;100.00
72423;BME280;71399;54.146;38.734;2024-03-06T07:17:23;100189.50;;;-0.84;100.00
72423;BME280;71399;54.146;38.734;2024-03-06T07:19:49;100190.97;;;-0.72;100.00
72423;BME280;71399;54.146;38.734;2024-03-06T07:22:16;100199.00;;;-0.56;100.00
72423;BME280;71399;54.146;38.734;2024-03-06T07:24:43;100194.69;;;-0.75;100.00
72423;BME280;71399;54.146;38.734;2024-03-06T07:27:10;100200.41;;;-0.71;100.00
72423;BME280;71399;54.146;38.734;2024-03-06T07:29:36;100198.75;;;-0.62;100.00
72423;BME280;71399;54.146;38.734;2024-03-06T07:32:03;100204.03;;;-0.54;100.00
72423;BME280;71399;54.146;38.734;2024-03-06T07:34:31;100192.16;;;-0.37;100.00
72423;BME280;71399;54.146;38.734;2024-03-06T07:36:58;100203.81;;;-0.13;100.00
72423;BME280;71399;54.146;38.734;2024-03-06T07:39:27;100206.22;;;-0.02;100.00
72423;BME280;71399;54.146;38.734;2024-03-06T07:41:53;100216.56;;;-0.02;100.00
72423;BME280;71399;54.146;38.734;2024-03-06T07:44:20;100208.81;;;-0.02;100.00
72423;BME280;71399;54.146;38.734;2024-03-06T07:46:47;100204.88;;;-0.06;100.00
72423;BME280;71399;54.146;38.734;2024-03-06T07:49:13;100206.19;;;0.08;100.00
72423;BME280;71399;54.146;38.734;2024-03-06T07:51:39;100206.28;;;0.16;100.00
72423;BME280;71399;54.146;38.734;2024-03-06T07:54:08;100220.75;;;0.18;100.00
72423;BME280;71399;54.146;38.734;2024-03-06T07:56:35;100215.06;;;0.33;100.00
72423;BME280;71399;54.146;38.734;2024-03-06T07:59:01;100214.22;;;0.42;100.00
72423;BME280;71399;54.146;38.734;2024-03-06T08:01:27;100207.44;;;0.77;100.00
72423;BME280;71399;54.146;38.734;2024-03-06T08:03:55;100218.03;;;1.02;100.00
72423;BME280;71399;54.146;38.734;2024-03-06T08:06:21;100219.28;;;0.80;100.00
72423;BME280;71399;54.146;38.734;2024-03-06T08:08:47;100211.56;;;0.70;100.00
72423;BME280;71399;54.146;38.734;2024-03-06T08:11:14;100219.34;;;0.70;100.00
72423;BME280;71399;54.146;38.734;2024-03-06T08:13:41;100225.91;;;0.46;100.00
72423;BME280;71399;54.146;38.734;2024-03-06T08:16:08;100227.53;;;0.20;100.00
72423;BME280;71399;54.146;38.734;2024-03-06T08:18:36;100213.28;;;0.06;100.00
72423;BME280;71399;54.146;38.734;2024-03-06T08:21:02;100218.53;;;0.24;100.00
72423;BME280;71399;54.146;38.734;2024-03-06T08:23:32;100228.78;;;0.43;100.00
72423;BME280;71399;54.146;38.734;2024-03-06T08:25:59;100224.69;;;0.68;100.00
72423;BME280;71399;54.146;38.734;2024-03-06T08:28:26;100235.53;;;1.00;100.00
72423;BME280;71399;54.146;38.734;2024-03-06T08:30:52;100232.88;;;1.09;100.00
72423;BME280;71399;54.146;38.734;2024-03-06T08:33:18;100233.47;;;1.21;100.00
72423;BME280;71399;54.146;38.734;2024-03-06T08:35:47;100230.03;;;1.39;100.00
72423;BME280;71399;54.146;38.734;2024-03-06T08:38:13;100221.34;;;1.30;100.00
72423;BME280;71399;54.146;38.734;2024-03-06T08:40:39;100230.50;;;1.34;100.00
72423;BME280;71399;54.146;38.734;2024-03-06T08:43:07;100230.78;;;1.31;100.00
72423;BME280;71399;54.146;38.734;2024-03-06T08:45:34;100229.44;;;1.27;100.00
72423;BME280;71399;54.146;38.734;2024-03-06T08:48:01;100230.78;;;1.31;100.00
72423;BME280;71399;54.146;38.734;2024-03-06T08:50:27;100224.41;;;1.07;100.00
72423;BME280;71399;54.146;38.734;2024-03-06T08:52:53;100225.22;;;0.72;100.00
72423;BME280;71399;54.146;38.734;2024-03-06T08:55:19;100218.97;;;0.65;100.00
72423;BME280;71399;54.146;38.734;2024-03-06T08:57:46;100223.78;;;0.60;100.00
72423;BME280;71399;54.146;38.734;2024-03-06T09:00:12;100227.97;;;0.43;100.00
72423;BME280;71399;54.146;38.734;2024-03-06T09:02:40;100221.19;;;0.60;100.00
72423;BME280;71399;54.146;38.734;2024-03-06T09:05:07;100212.50;;;0.79;100.00
72423;BME280;71399;54.146;38.734;2024-03-06T09:07:37;100221.44;;;0.84;100.00
72423;BME280;71399;54.146;38.734;2024-03-06T09:10:05;100218.78;;;1.12;100.00
72423;BME280;71399;54.146;38.734;2024-03-06T09:12:34;100223.19;;;1.56;100.00
72423;BME280;71399;54.146;38.734;2024-03-06T09:15:02;100217.44;;;1.78;100.00
72423;BME280;71399;54.146;38.734;2024-03-06T09:17:31;100217.31;;;1.80;100.00
72423;BME280;71399;54.146;38.734;2024-03-06T09:19:57;100227.94;;;1.69;100.00
72423;BME280;71399;54.146;38.734;2024-03-06T09:22:24;100216.78;;;1.50;100.00
72423;BME280;71399;54.146;38.734;2024-03-06T09:24:50;100206.91;;;1.27;100.00
72423;BME280;71399;54.146;38.734;2024-03-06T09:27:17;100202.34;;;1.29;100.00
72423;BME280;71399;54.146;38.734;2024-03-06T09:29:43;100215.19;;;1.83;100.00
72423;BME280;71399;54.146;38.734;2024-03-06T09:32:10;100211.66;;;2.27;100.00
72423;BME280;71399;54.146;38.734;2024-03-06T09:34:41;100214.34;;;2.52;100.00
72423;BME280;71399;54.146;38.734;2024-03-06T09:37:08;100214.53;;;2.58;100.00
72423;BME280;71399;54.146;38.734;2024-03-06T09:39:35;100215.00;;;2.54;100.00
72423;BME280;71399;54.146;38.734;2024-03-06T09:42:01;100220.53;;;2.43;100.00
72423;BME280;71399;54.146;38.734;2024-03-06T09:44:28;100206.81;;;2.24;100.00
72423;BME280;71399;54.146;38.734;2024-03-06T09:46:54;100213.72;;;2.15;100.00
72423;BME280;71399;54.146;38.734;2024-03-06T09:49:24;100211.94;;;2.08;100.00
72423;BME280;71399;54.146;38.734;2024-03-06T09:51:51;100218.09;;;1.72;100.00
72423;BME280;71399;54.146;38.734;2024-03-06T09:54:20;100209.50;;;1.54;100.00
72423;BME280;71399;54.146;38.734;2024-03-06T09:56:49;100218.03;;;1.64;100.00
72423;BME280;71399;54.146;38.734;2024-03-06T09:59:15;100201.00;;;1.70;100.00
72423;BME280;71399;54.146;38.734;2024-03-06T10:01:50;100214.00;;;1.70;100.00
72423;BME280;71399;54.146;38.734;2024-03-06T10:04:25;100206.84;;;1.72;100.00
72423;BME280;71399;54.146;38.734;2024-03-06T10:06:54;100200.56;;;1.74;100.00
72423;BME280;71399;54.146;38.734;2024-03-06T10:09:24;100203.34;;;1.81;100.00
72423;BME280;71399;54.146;38.734;2024-03-06T10:11:51;100206.44;;;1.84;100.00
72423;BME280;71399;54.146;38.734;2024-03-06T10:14:23;100198.69;;;1.93;100.00
72423;BME280;71399;54.146;38.734;2024-03-06T10:16:57;100196.81;;;2.11;100.00
72423;BME280;71399;54.146;38.734;2024-03-06T10:19:25;100206.50;;;1.93;100.00
72423;BME280;71399;54.146;38.734;2024-03-06T10:21:57;100199.84;;;1.64;100.00
72423;BME280;71399;54.146;38.734;2024-03-06T10:24:26;100203.63;;;1.25;100.00
72423;BME280;71399;54.146;38.734;2024-03-06T10:26:55;100198.13;;;1.28;100.00
72423;BME280;71399;54.146;38.734;2024-03-06T10:29:22;100202.28;;;1.65;100.00
72423;BME280;71399;54.146;38.734;2024-03-06T10:31:57;100201.84;;;1.78;100.00
72423;BME280;71399;54.146;38.734;2024-03-06T10:34:25;100188.41;;;1.57;100.00
72423;BME280;71399;54.146;38.734;2024-03-06T10:36:57;100195.66;;;1.45;100.00
72423;BME280;71399;54.146;38.734;2024-03-06T10:39:24;100197.03;;;1.13;100.00
72423;BME280;71399;54.146;38.734;2024-03-06T10:41:57;100194.16;;;0.80;100.00
72423;BME280;71399;54.146;38.734;2024-03-06T10:44:25;100187.38;;;0.51;100.00
72423;BME280;71399;54.146;38.734;2024-03-06T10:46:58;100193.91;;;0.38;100.00
72423;BME280;71399;54.146;38.734;2024-03-06T10:49:27;100189.22;;;0.13;100.00
72423;BME280;71399;54.146;38.734;2024-03-06T10:51:57;100188.34;;;-0.05;100.00
72423;BME280;71399;54.146;38.734;2024-03-06T10:54:27;100186.66;;;-0.24;100.00
72423;BME280;71399;54.146;38.734;2024-03-06T10:56:55;100192.25;;;-0.29;100.00
72423;BME280;71399;54.146;38.734;2024-03-06T10:59:27;100186.06;;;-0.56;100.00
72423;BME280;71399;54.146;38.734;2024-03-06T11:01:58;100184.31;;;-0.65;100.00
72423;BME280;71399;54.146;38.734;2024-03-06T11:04:29;100186.78;;;-0.73;100.00
72423;BME280;71399;54.146;38.734;2024-03-06T11:07:02;100188.97;;;-0.68;100.00
72423;BME280;71399;54.146;38.734;2024-03-06T11:09:33;100177.47;;;-0.56;100.00
72423;BME280;71399;54.146;38.734;2024-03-06T11:12:02;100186.03;;;-0.46;100.00
72423;BME280;71399;54.146;38.734;2024-03-06T11:14:31;100182.09;;;-0.40;100.00
72423;BME280;71399;54.146;38.734;2024-03-06T11:17:15;100171.81;;;-0.32;100.00
72423;BME280;71399;54.146;38.734;2024-03-06T11:28:37;100176.53;;;-0.17;100.00
72423;BME280;71399;54.146;38.734;2024-03-06T11:31:05;100182.63;;;-0.36;100.00
72423;BME280;71399;54.146;38.734;2024-03-06T11:33:35;100179.63;;;-0.42;100.00
72423;BME280;71399;54.146;38.734;2024-03-06T11:38:59;100177.69;;;-0.30;100.00
72423;BME280;71399;54.146;38.734;2024-03-06T11:41:30;100171.63;;;-0.48;100.00
72423;BME280;71399;54.146;38.734;2024-03-06T11:44:00;100173.03;;;-0.73;100.00
72423;BME280;71399;54.146;38.734;2024-03-06T11:46:49;100174.13;;;-0.86;100.00
72423;BME280;71399;54.146;38.734;2024-03-06T11:49:23;100180.00;;;-0.94;100.00
72423;BME280;71399;54.146;38.734;2024-03-06T11:51:54;100161.75;;;-1.02;100.00
72423;BME280;71399;54.146;38.734;2024-03-06T11:54:22;100176.16;;;-0.99;100.00
72423;BME280;71399;54.146;38.734;2024-03-06T11:56:57;100175.75;;;-0.95;100.00
72423;BME280;71399;54.146;38.734;2024-03-06T11:59:34;100171.53;;;-0.96;100.00
72423;BME280;71399;54.146;38.734;2024-03-06T12:02:03;100173.84;;;-1.02;100.00
72423;BME280;71399;54.146;38.734;2024-03-06T12:04:34;100185.72;;;-1.00;100.00
72423;BME280;71399;54.146;38.734;2024-03-06T12:07:04;100164.34;;;-1.12;100.00
72423;BME280;71399;54.146;38.734;2024-03-06T12:09:37;100174.25;;;-0.97;100.00
72423;BME280;71399;54.146;38.734;2024-03-06T12:12:04;100170.44;;;-0.93;100.00
72423;BME280;71399;54.146;38.734;2024-03-06T12:14:35;100167.19;;;-1.05;100.00
72423;BME280;71399;54.146;38.734;2024-03-06T12:17:02;100162.44;;;-1.00;100.00
72423;BME280;71399;54.146;38.734;2024-03-06T12:19:35;100144.31;;;-1.09;100.00
72423;BME280;71399;54.146;38.734;2024-03-06T12:22:02;100152.75;;;-1.07;100.00
72423;BME280;71399;54.146;38.734;2024-03-06T12:24:33;100148.00;;;-1.22;100.00
72423;BME280;71399;54.146;38.734;2024-03-06T12:27:06;100131.53;;;-1.40;100.00
72423;BME280;71399;54.146;38.734;2024-03-06T12:29:34;100144.75;;;-1.34;100.00
72423;BME280;71399;54.146;38.734;2024-03-06T12:32:02;100145.00;;;-1.37;100.00
72423;BME280;71399;54.146;38.734;2024-03-06T12:34:29;100129.34;;;-1.25;100.00
72423;BME280;71399;54.146;38.734;2024-03-06T12:37:18;100134.22;;;-1.22;100.00
72423;BME280;71399;54.146;38.734;2024-03-06T12:39:44;100127.19;;;-1.20;100.00
72423;BME280;71399;54.146;38.734;2024-03-06T12:42:10;100128.25;;;-1.13;100.00
72423;BME280;71399;54.146;38.734;2024-03-06T12:44:37;100133.97;;;-1.09;100.00
72423;BME280;71399;54.146;38.734;2024-03-06T12:47:05;100131.66;;;-1.13;100.00
72423;BME280;71399;54.146;38.734;2024-03-06T12:49:32;100127.72;;;-1.17;100.00
72423;BME280;71399;54.146;38.734;2024-03-06T12:51:58;100125.00;;;-1.15;100.00